Time;durP1;ratioP1;P1;durP2;ratioP2;P2;SDS_P1;SDS_P2;PMS_P1;PMS_P2;Temp;Humidity;BMP_temperature;BMP_pressure;BME280_temperature;BME280_humidity;BME280_pressure;Samples;Min_cycle;Max_cycle;Signal;HPM_P1;HPM_P2
2022/12/10 00:01:23;;;;;;;40.63;25.97;;;-1.50;99.90;;;;;;5073430;28;20254;-72
2022/12/10 00:03:51;;;;;;;40.50;24.93;;;-1.50;99.90;;;;;;5073421;28;20204;-72
2022/12/10 00:06:20;;;;;;;42.43;25.63;;;-1.50;99.90;;;;;;5073382;28;20197;-72
2022/12/10 00:08:47;;;;;;;40.63;24.90;;;-1.50;99.90;;;;;;5073156;28;20783;-73
2022/12/10 00:11:15;;;;;;;40.20;25.17;;;-1.50;99.90;;;;;;5073378;28;20222;-72
2022/12/10 00:13:43;;;;;;;40.53;25.83;;;-1.50;99.90;;;;;;5073606;28;20603;-73
2022/12/10 00:16:12;;;;;;;39.87;23.83;;;-1.50;99.90;;;;;;5073479;28;20193;-72
2022/12/10 00:18:39;;;;;;;39.87;24.87;;;-1.50;99.90;;;;;;5073420;28;20274;-73
2022/12/10 00:21:09;;;;;;;39.10;24.47;;;-1.50;99.90;;;;;;5073197;28;20197;-73
2022/12/10 00:23:36;;;;;;;39.97;24.43;;;-1.50;99.90;;;;;;5073606;28;20667;-73
2022/12/10 00:26:05;;;;;;;41.47;24.83;;;-1.50;99.90;;;;;;5073710;28;20226;-73
2022/12/10 00:28:33;;;;;;;37.20;23.63;;;-1.40;99.90;;;;;;5073211;28;20197;-73
2022/12/10 00:31:04;;;;;;;35.93;23.90;;;-1.40;99.90;;;;;;5073088;28;20229;-73
2022/12/10 00:33:30;;;;;;;39.57;25.53;;;-1.50;99.90;;;;;;5073662;28;20205;-73
2022/12/10 00:35:57;;;;;;;36.20;23.67;;;-1.50;99.90;;;;;;5073794;28;20226;-72
2022/12/10 00:38:25;;;;;;;39.93;24.70;;;-1.50;99.90;;;;;;5076539;28;20224;-72
2022/12/10 00:40:51;;;;;;;42.43;25.70;;;-1.50;99.90;;;;;;5075354;28;20204;-72
2022/12/10 00:43:18;;;;;;;39.40;23.63;;;-1.50;99.90;;;;;;5074962;28;20385;-72
2022/12/10 00:45:45;;;;;;;38.03;24.00;;;-1.40;99.90;;;;;;5074918;28;20201;-72
2022/12/10 00:48:11;;;;;;;39.63;26.17;;;-1.40;99.90;;;;;;5077610;28;20197;-72
2022/12/10 00:50:38;;;;;;;41.83;24.17;;;-1.40;99.90;;;;;;5074374;28;20197;-73
2022/12/10 00:53:04;;;;;;;41.00;24.17;;;-1.40;99.90;;;;;;5073447;28;20717;-72
2022/12/10 00:55:32;;;;;;;38.47;25.03;;;-1.40;99.90;;;;;;5073608;28;20193;-73
2022/12/10 00:57:59;;;;;;;39.00;24.63;;;-1.40;99.90;;;;;;5072760;28;20757;-73
2022/12/10 01:00:26;;;;;;;38.43;23.93;;;-1.30;99.90;;;;;;5072918;28;20192;-72
2022/12/10 01:02:53;;;;;;;37.53;23.30;;;-1.40;99.90;;;;;;5073294;28;20223;-73
2022/12/10 01:05:20;;;;;;;35.10;23.23;;;-1.40;99.90;;;;;;5076170;28;20194;-73
2022/12/10 01:07:47;;;;;;;34.20;23.40;;;-1.30;99.90;;;;;;5077176;28;20254;-72
2022/12/10 01:10:13;;;;;;;35.87;22.50;;;-1.30;99.90;;;;;;5077183;28;20267;-72
2022/12/10 01:12:41;;;;;;;39.03;24.43;;;-1.30;99.90;;;;;;5077683;28;20205;-72
2022/12/10 01:15:09;;;;;;;38.87;24.20;;;-1.30;99.90;;;;;;5077270;28;20230;-72
2022/12/10 01:17:35;;;;;;;36.07;23.80;;;-1.40;99.90;;;;;;5077083;28;20260;-73
2022/12/10 01:20:02;;;;;;;40.13;24.20;;;-1.30;99.90;;;;;;5077439;28;20193;-72
2022/12/10 01:22:28;;;;;;;33.00;22.60;;;-1.30;99.90;;;;;;5076558;28;20227;-72
2022/12/10 01:24:55;;;;;;;34.90;23.20;;;-1.30;99.90;;;;;;5076001;28;20200;-72
2022/12/10 01:27:22;;;;;;;34.63;24.10;;;-1.30;99.90;;;;;;5076035;28;20247;-73
2022/12/10 01:29:50;;;;;;;34.13;22.53;;;-1.30;99.90;;;;;;5076203;28;20281;-72
2022/12/10 01:32:16;;;;;;;39.67;24.47;;;-1.30;99.90;;;;;;5076059;28;20832;-74
2022/12/10 01:34:43;;;;;;;40.67;25.37;;;-1.30;99.90;;;;;;5075986;28;20725;-73
2022/12/10 01:37:10;;;;;;;37.70;24.17;;;-1.30;99.90;;;;;;5075831;28;20197;-72
2022/12/10 01:39:37;;;;;;;37.20;23.63;;;-1.20;99.90;;;;;;5075669;28;20228;-73
2022/12/10 01:42:04;;;;;;;35.83;22.93;;;-1.20;99.90;;;;;;5075981;28;20201;-74
2022/12/10 01:45:08;;;;;;;32.97;22.47;;;-1.20;99.90;;;;;;5075825;28;20223;-73
2022/12/10 01:47:35;;;;;;;35.77;23.07;;;-1.20;99.90;;;;;;5013707;28;20238;-73
2022/12/10 01:50:03;;;;;;;37.00;24.13;;;-1.10;99.90;;;;;;5013822;28;20262;-73
2022/12/10 01:52:29;;;;;;;38.53;23.77;;;-1.20;99.90;;;;;;5043018;28;20196;-73
2022/12/10 01:54:56;;;;;;;36.83;23.97;;;-1.20;99.90;;;;;;5075719;28;20203;-73
2022/12/10 01:57:25;;;;;;;39.40;23.90;;;-1.20;99.90;;;;;;5075441;28;20247;-73
2022/12/10 01:59:56;;;;;;;34.50;23.97;;;-1.20;99.90;;;;;;5075512;28;20197;-73
2022/12/10 02:02:32;;;;;;;36.33;23.37;;;-1.20;99.90;;;;;;5075524;28;20197;-73
2022/12/10 02:05:09;;;;;;;36.90;23.03;;;-1.20;99.90;;;;;;5075350;28;20204;-73
2022/12/10 02:07:47;;;;;;;35.67;23.87;;;-1.20;99.90;;;;;;5074936;28;20644;-73
2022/12/10 02:10:25;;;;;;;37.87;23.43;;;-1.20;99.90;;;;;;5075345;28;20197;-73
2022/12/10 02:13:09;;;;;;;32.73;22.90;;;-1.20;99.90;;;;;;5075229;28;20216;-73
2022/12/10 02:15:40;;;;;;;36.67;23.63;;;-1.20;99.90;;;;;;5075065;28;20197;-73
2022/12/10 02:18:14;;;;;;;35.47;23.07;;;-1.20;99.90;;;;;;5075565;28;20251;-73
2022/12/10 02:20:43;;;;;;;34.90;22.87;;;-1.20;99.90;;;;;;5075068;28;20231;-73
2022/12/10 02:23:12;;;;;;;36.87;24.47;;;-1.20;99.90;;;;;;5075052;28;20675;-73
2022/12/10 02:25:44;;;;;;;34.20;23.20;;;-1.20;99.90;;;;;;5074834;28;20602;-73
2022/12/10 02:28:20;;;;;;;35.07;23.87;;;-1.20;99.90;;;;;;5074965;28;20204;-73
2022/12/10 02:30:51;;;;;;;39.47;25.17;;;-1.20;99.90;;;;;;5075313;28;20204;-73
2022/12/10 02:33:19;;;;;;;35.13;22.00;;;-1.20;99.90;;;;;;5075313;28;20259;-73
2022/12/10 02:35:50;;;;;;;34.07;22.00;;;-1.10;99.90;;;;;;5075929;28;20201;-73
2022/12/10 02:38:23;;;;;;;36.03;23.23;;;-1.20;99.90;;;;;;5075582;28;20213;-73
2022/12/10 02:40:54;;;;;;;32.40;22.40;;;-1.20;99.90;;;;;;5075623;28;20642;-73
2022/12/10 02:43:22;;;;;;;37.10;23.80;;;-1.20;99.90;;;;;;5074835;28;20193;-74
2022/12/10 02:45:51;;;;;;;35.10;23.60;;;-1.20;99.90;;;;;;5074711;28;20201;-74
2022/12/10 02:48:19;;;;;;;35.90;23.67;;;-1.20;99.90;;;;;;5074496;28;20197;-72
2022/12/10 02:50:46;;;;;;;36.70;23.67;;;-1.10;99.90;;;;;;5074615;28;20208;-73
2022/12/10 02:53:13;;;;;;;34.60;23.10;;;-1.10;99.90;;;;;;5074371;28;20193;-73
2022/12/10 02:55:53;;;;;;;34.73;22.60;;;-1.10;99.90;;;;;;5074573;28;20209;-73
2022/12/10 02:58:29;;;;;;;36.43;23.37;;;-1.10;99.90;;;;;;5074907;28;20262;-74
2022/12/10 03:01:03;;;;;;;33.67;22.57;;;-1.10;99.90;;;;;;5075133;28;20200;-73
2022/12/10 03:03:38;;;;;;;36.97;24.33;;;-1.20;99.90;;;;;;5074667;28;20710;-74
2022/12/10 03:06:11;;;;;;;38.50;24.33;;;-1.10;99.90;;;;;;5074102;28;20598;-74
2022/12/10 03:08:46;;;;;;;34.47;22.90;;;-1.20;99.90;;;;;;5073950;28;20703;-73
2022/12/10 03:11:15;;;;;;;34.87;23.03;;;-1.10;99.90;;;;;;5074164;28;20195;-73
2022/12/10 03:13:48;;;;;;;34.30;22.40;;;-1.10;99.90;;;;;;5074390;28;20201;-74
2022/12/10 03:16:18;;;;;;;36.90;23.87;;;-1.10;99.90;;;;;;5075432;28;20197;-73
2022/12/10 03:18:47;;;;;;;36.33;22.90;;;-1.10;99.90;;;;;;5077396;28;20213;-73
2022/12/10 03:21:16;;;;;;;36.27;23.40;;;-1.10;99.90;;;;;;5078668;28;20204;-74
2022/12/10 03:23:46;;;;;;;35.03;22.87;;;-1.10;99.90;;;;;;5084542;28;20197;-73
2022/12/10 03:26:14;;;;;;;35.00;24.07;;;-1.10;99.90;;;;;;5080179;28;20201;-73
2022/12/10 03:28:46;;;;;;;34.20;23.67;;;-1.10;99.90;;;;;;5078957;28;20205;-72
2022/12/10 03:31:14;;;;;;;36.13;24.30;;;-1.10;99.90;;;;;;5081982;28;20201;-72
2022/12/10 03:33:43;;;;;;;34.80;23.33;;;-1.10;99.90;;;;;;5083884;28;20608;-74
2022/12/10 03:36:11;;;;;;;35.87;23.50;;;-1.10;99.90;;;;;;5085679;28;20292;-73
2022/12/10 03:38:38;;;;;;;35.53;24.00;;;-1.10;99.90;;;;;;5084365;28;20235;-73
2022/12/10 03:41:05;;;;;;;34.63;22.57;;;-1.10;99.90;;;;;;5085096;28;20845;-73
2022/12/10 03:43:32;;;;;;;36.80;24.93;;;-1.10;99.90;;;;;;5083730;28;20200;-73
2022/12/10 03:45:58;;;;;;;35.23;23.37;;;-1.10;99.90;;;;;;5078191;28;20251;-73
2022/12/10 03:48:25;;;;;;;34.17;22.70;;;-1.10;99.90;;;;;;5074085;28;20197;-73
2022/12/10 03:50:53;;;;;;;35.80;23.30;;;-1.10;99.90;;;;;;5073733;28;20254;-73
2022/12/10 03:53:20;;;;;;;36.57;24.60;;;-1.10;99.90;;;;;;5073998;28;20254;-73
2022/12/10 03:55:46;;;;;;;32.70;22.73;;;-1.10;99.90;;;;;;5073664;28;20193;-73
2022/12/10 03:58:13;;;;;;;33.03;22.83;;;-1.10;99.90;;;;;;5073268;28;20201;-73
2022/12/10 04:00:40;;;;;;;37.83;24.07;;;-1.00;99.90;;;;;;5073485;28;20201;-73
2022/12/10 04:03:07;;;;;;;36.40;23.20;;;-1.10;99.90;;;;;;5073543;28;20255;-73
2022/12/10 04:05:33;;;;;;;36.57;23.40;;;-1.10;99.90;;;;;;5073323;28;20197;-73
2022/12/10 04:08:01;;;;;;;33.10;22.90;;;-1.10;99.90;;;;;;5073207;28;20265;-74
2022/12/10 04:10:28;;;;;;;37.07;22.77;;;-1.10;99.90;;;;;;5073471;28;20204;-73
2022/12/10 04:18:23;;;;;;;34.23;23.30;;;-1.20;99.90;;;;;;5073663;28;20228;-73
2022/12/10 04:29:05;;;;;;;36.47;23.17;;;-1.10;99.90;;;;;;5073166;28;20196;-73
2022/12/10 04:31:31;;;;;;;38.50;23.47;;;-1.20;99.90;;;;;;5073291;28;20246;-73
2022/12/10 04:33:58;;;;;;;35.37;23.27;;;-1.20;99.90;;;;;;5073115;28;20599;-73
2022/12/10 04:36:24;;;;;;;33.73;23.07;;;-1.30;99.90;;;;;;5073242;28;20208;-73
2022/12/10 04:38:52;;;;;;;36.47;24.20;;;-1.30;99.90;;;;;;5075288;28;20242;-74
2022/12/10 04:41:19;;;;;;;32.90;22.57;;;-1.30;99.90;;;;;;5077238;28;20243;-73
2022/12/10 04:43:46;;;;;;;36.07;22.57;;;-1.30;99.90;;;;;;5077132;28;20258;-73
2022/12/10 04:46:12;;;;;;;36.80;23.50;;;-1.30;99.90;;;;;;5077236;28;20196;-73
2022/12/10 04:48:39;;;;;;;40.43;24.93;;;-1.30;99.90;;;;;;5077041;28;20602;-73
2022/12/10 04:51:06;;;;;;;37.13;24.17;;;-1.30;99.90;;;;;;5076760;28;20197;-73
2022/12/10 04:53:32;;;;;;;36.47;23.93;;;-1.30;99.90;;;;;;5076624;28;20203;-73
2022/12/10 04:56:04;;;;;;;33.67;23.73;;;-1.40;99.90;;;;;;5077051;28;20561;-73
2022/12/10 04:58:31;;;;;;;39.83;24.43;;;-1.40;99.90;;;;;;5076425;28;20660;-74
2022/12/10 05:01:02;;;;;;;36.60;23.80;;;-1.40;99.90;;;;;;5076782;28;20200;-73
2022/12/10 05:03:29;;;;;;;37.03;23.70;;;-1.40;99.90;;;;;;5076678;28;20251;-73
2022/12/10 05:05:55;;;;;;;38.20;24.50;;;-1.40;99.90;;;;;;5076485;28;20193;-73
2022/12/10 05:08:22;;;;;;;34.53;23.27;;;-1.50;99.90;;;;;;5076337;28;20229;-73
2022/12/10 05:10:49;;;;;;;40.23;25.90;;;-1.50;99.90;;;;;;5076651;28;20204;-73
2022/12/10 05:13:17;;;;;;;40.90;25.93;;;-1.50;99.90;;;;;;5076533;28;20243;-73
2022/12/10 05:15:44;;;;;;;42.40;23.97;;;-1.60;99.90;;;;;;5076316;28;20201;-73
2022/12/10 05:18:11;;;;;;;42.67;25.03;;;-1.60;99.90;;;;;;5076346;28;20201;-73
2022/12/10 05:20:39;;;;;;;39.97;25.17;;;-1.60;99.90;;;;;;5076189;28;20240;-73
2022/12/10 05:25:58;;;;;;;38.70;24.80;;;-1.60;99.90;;;;;;5076221;28;20203;-73
2022/12/10 05:28:26;;;;;;;38.13;24.90;;;-1.60;99.90;;;;;;5076213;28;20192;-73
2022/12/10 05:30:53;;;;;;;39.27;24.27;;;-1.70;99.90;;;;;;5076005;28;20200;-73
2022/12/10 05:33:20;;;;;;;40.53;25.20;;;-1.70;99.90;;;;;;5076165;28;20200;-75
2022/12/10 05:35:53;;;;;;;40.43;25.53;;;-1.70;99.90;;;;;;5076252;28;20205;-74
2022/12/10 05:38:20;;;;;;;41.67;26.93;;;-1.70;99.90;;;;;;5076084;28;20205;-74
2022/12/10 05:40:47;;;;;;;41.30;26.20;;;-1.60;99.90;;;;;;5076969;28;20225;-73
2022/12/10 05:43:13;;;;;;;44.17;26.23;;;-1.70;99.90;;;;;;5076380;28;20197;-73
2022/12/10 05:45:41;;;;;;;41.97;26.83;;;-1.70;99.90;;;;;;5075779;28;20853;-74
2022/12/10 05:48:10;;;;;;;40.53;25.43;;;-1.70;99.90;;;;;;5076170;28;20197;-74
2022/12/10 05:50:37;;;;;;;40.40;24.13;;;-1.70;99.90;;;;;;5075112;28;20197;-72
2022/12/10 05:53:04;;;;;;;41.33;25.90;;;-1.60;99.90;;;;;;5076191;28;20223;-73
2022/12/10 05:55:32;;;;;;;41.50;26.07;;;-1.70;99.90;;;;;;5076593;28;20255;-74
2022/12/10 05:57:59;;;;;;;44.20;27.03;;;-1.60;99.90;;;;;;5077718;28;20197;-74
2022/12/10 06:00:26;;;;;;;43.07;27.80;;;-1.60;99.90;;;;;;5082864;28;20353;-74
2022/12/10 06:02:54;;;;;;;42.20;25.10;;;-1.60;99.90;;;;;;5084029;28;20197;-74
2022/12/10 06:05:21;;;;;;;44.97;27.73;;;-1.60;99.90;;;;;;5083213;28;20246;-73
2022/12/10 06:07:48;;;;;;;46.73;28.07;;;-1.60;99.90;;;;;;5081789;28;20207;-73
2022/12/10 06:10:14;;;;;;;44.90;28.50;;;-1.60;99.90;;;;;;5080743;28;20197;-73
2022/12/10 06:12:41;;;;;;;41.90;26.47;;;-1.70;99.90;;;;;;5079048;28;20196;-73
2022/12/10 06:15:09;;;;;;;44.80;27.60;;;-1.70;99.90;;;;;;5076461;28;20193;-74
2022/12/10 06:17:36;;;;;;;45.63;28.17;;;-1.70;99.90;;;;;;5075799;28;20262;-73
2022/12/10 06:20:04;;;;;;;48.53;28.50;;;-1.70;99.90;;;;;;5075336;28;20227;-74
2022/12/10 06:22:31;;;;;;;43.53;27.80;;;-1.80;99.90;;;;;;5075542;28;20205;-73
2022/12/10 06:24:58;;;;;;;46.13;27.40;;;-1.80;99.90;;;;;;5075475;28;20203;-73
2022/12/10 06:27:24;;;;;;;44.73;26.37;;;-1.80;99.90;;;;;;5075470;28;20262;-73
2022/12/10 06:29:51;;;;;;;44.63;27.17;;;-1.70;99.90;;;;;;5075349;28;20201;-73
2022/12/10 06:32:18;;;;;;;43.93;27.57;;;-1.70;99.90;;;;;;5075326;28;20209;-73
2022/12/10 06:34:44;;;;;;;44.00;27.77;;;-1.70;99.90;;;;;;5075282;28;20247;-73
2022/12/10 06:37:12;;;;;;;43.00;25.93;;;-1.70;99.90;;;;;;5075259;28;20197;-73
2022/12/10 06:39:39;;;;;;;43.50;27.00;;;-1.70;99.90;;;;;;5077007;28;20225;-74
2022/12/10 06:42:06;;;;;;;43.77;26.13;;;-1.70;99.90;;;;;;5077060;28;20212;-73
2022/12/10 06:44:33;;;;;;;42.27;26.97;;;-1.70;99.90;;;;;;5076040;28;20200;-73
2022/12/10 06:46:59;;;;;;;44.37;27.17;;;-1.70;99.90;;;;;;5076276;28;20208;-73
2022/12/10 06:49:26;;;;;;;44.93;26.87;;;-1.60;99.90;;;;;;5076233;28;20201;-73
2022/12/10 06:51:53;;;;;;;45.83;28.80;;;-1.70;99.90;;;;;;5075570;28;20193;-73
2022/12/10 06:54:21;;;;;;;45.07;27.50;;;-1.70;99.90;;;;;;5074738;28;20204;-73
2022/12/10 06:56:48;;;;;;;44.50;27.47;;;-1.70;99.90;;;;;;5075500;28;20652;-73
2022/12/10 06:59:15;;;;;;;45.33;27.37;;;-1.70;99.90;;;;;;5075307;28;20221;-74
2022/12/10 07:01:42;;;;;;;48.70;28.47;;;-1.80;99.90;;;;;;5073925;28;20192;-73
2022/12/10 07:04:09;;;;;;;49.33;28.80;;;-1.80;99.90;;;;;;5074607;28;20204;-74
2022/12/10 07:06:36;;;;;;;46.50;27.80;;;-1.80;99.90;;;;;;5074486;28;20538;-73
2022/12/10 07:09:02;;;;;;;46.47;29.17;;;-1.80;99.90;;;;;;5074365;28;20282;-73
2022/12/10 07:11:31;;;;;;;63.77;35.70;;;-1.90;99.90;;;;;;5074749;28;20203;-73
2022/12/10 07:13:58;;;;;;;109.70;51.47;;;-2.00;99.90;;;;;;5074448;28;20232;-73
2022/12/10 07:16:27;;;;;;;69.87;36.13;;;-1.90;99.90;;;;;;5074551;28;20200;-73
2022/12/10 07:18:55;;;;;;;65.67;34.90;;;-2.00;99.90;;;;;;5075097;28;20204;-74
2022/12/10 07:21:24;;;;;;;54.67;31.73;;;-2.00;99.90;;;;;;5074656;28;20204;-74
2022/12/10 07:23:53;;;;;;;61.30;33.90;;;-2.00;99.90;;;;;;5074777;28;20333;-74
2022/12/10 07:26:20;;;;;;;49.77;29.47;;;-2.00;99.90;;;;;;5075390;28;20208;-73
2022/12/10 07:28:48;;;;;;;53.97;31.87;;;-2.00;99.90;;;;;;5076160;28;20201;-75
2022/12/10 07:31:15;;;;;;;46.53;29.33;;;-1.90;99.90;;;;;;5076553;28;20201;-74
2022/12/10 07:33:42;;;;;;;49.47;28.10;;;-1.90;99.90;;;;;;5077127;28;20196;-73
2022/12/10 07:36:10;;;;;;;49.13;29.27;;;-1.90;99.90;;;;;;5080433;28;20228;-75
2022/12/10 07:38:39;;;;;;;48.60;31.20;;;-1.90;99.90;;;;;;5082172;28;20218;-74
2022/12/10 07:41:08;;;;;;;49.07;30.63;;;-1.80;99.90;;;;;;5085553;28;20224;-73
2022/12/10 07:43:35;;;;;;;52.70;31.30;;;-1.80;99.90;;;;;;5086090;28;20220;-73
2022/12/10 07:46:09;;;;;;;52.43;29.60;;;-1.70;99.90;;;;;;5084292;28;20598;-73
2022/12/10 07:48:37;;;;;;;53.33;31.30;;;-1.60;99.90;;;;;;5083704;28;20197;-74
2022/12/10 07:51:05;;;;;;;52.27;32.27;;;-1.60;99.90;;;;;;5084143;28;20203;-74
2022/12/10 07:53:32;;;;;;;54.13;31.10;;;-1.60;99.90;;;;;;5084988;28;20209;-74
2022/12/10 07:55:59;;;;;;;45.67;28.70;;;-1.60;99.90;;;;;;5082472;28;20679;-74
2022/12/10 07:58:25;;;;;;;48.03;29.03;;;-1.60;99.90;;;;;;5081627;28;20648;-74
2022/12/10 08:00:52;;;;;;;49.50;30.47;;;-1.60;99.90;;;;;;5081736;28;20225;-74
2022/12/10 08:03:20;;;;;;;48.67;30.47;;;-1.60;99.90;;;;;;5077190;28;20645;-74
2022/12/10 08:05:46;;;;;;;43.30;27.53;;;-1.60;99.90;;;;;;5082736;28;20613;-74
2022/12/10 08:08:13;;;;;;;50.23;30.47;;;-1.50;99.90;;;;;;5082067;28;20225;-75
2022/12/10 08:10:40;;;;;;;44.40;27.80;;;-1.50;99.90;;;;;;5081860;28;20193;-75
2022/12/10 08:13:07;;;;;;;44.97;27.33;;;-1.40;99.90;;;;;;5081509;28;20267;-73
2022/12/10 08:15:34;;;;;;;49.03;35.33;;;-1.30;99.90;;;;;;5080698;28;20192;-73
2022/12/10 08:18:00;;;;;;;46.63;34.03;;;-1.30;99.90;;;;;;5080441;28;20208;-73
2022/12/10 08:20:28;;;;;;;46.37;28.33;;;-1.30;99.90;;;;;;5076608;28;20229;-73
2022/12/10 08:22:55;;;;;;;38.73;25.73;;;-1.30;99.90;;;;;;5074438;28;20201;-73
2022/12/10 08:25:22;;;;;;;45.33;27.57;;;-1.20;99.90;;;;;;5073833;28;20285;-74
2022/12/10 08:27:48;;;;;;;42.10;25.80;;;-1.20;99.90;;;;;;5073849;28;20602;-73
2022/12/10 08:30:15;;;;;;;43.70;25.90;;;-1.20;99.90;;;;;;5074031;28;20196;-73
2022/12/10 08:32:41;;;;;;;39.27;25.90;;;-1.20;99.90;;;;;;5073945;28;20560;-73
2022/12/10 08:35:08;;;;;;;42.67;27.10;;;-1.10;99.90;;;;;;5074061;28;20192;-74
2022/12/10 08:37:36;;;;;;;41.47;26.90;;;-1.00;99.90;;;;;;5074243;28;20197;-76
2022/12/10 08:40:04;;;;;;;43.83;27.20;;;-1.00;99.90;;;;;;5075617;28;20269;-72
2022/12/10 08:42:30;;;;;;;39.10;26.57;;;-1.00;99.90;;;;;;5082585;28;20204;-72
2022/12/10 08:44:57;;;;;;;39.60;26.37;;;-0.90;99.90;;;;;;5079899;28;20255;-76
2022/12/10 08:47:24;;;;;;;38.50;26.17;;;-0.80;99.90;;;;;;5079880;28;20201;-74
2022/12/10 08:49:51;;;;;;;40.17;25.27;;;-0.80;99.90;;;;;;5084001;28;20205;-74
2022/12/10 08:52:18;;;;;;;38.27;25.53;;;-0.80;99.90;;;;;;5086471;28;20255;-73
2022/12/10 08:54:46;;;;;;;37.83;25.80;;;-0.80;99.90;;;;;;5077259;28;20205;-73
2022/12/10 08:57:15;;;;;;;39.83;25.73;;;-0.80;99.90;;;;;;5076888;28;20197;-76
2022/12/10 08:59:42;;;;;;;36.33;25.03;;;-0.70;99.90;;;;;;5074077;28;20219;-73
2022/12/10 09:02:11;;;;;;;39.10;24.53;;;-0.70;99.90;;;;;;5073617;28;20197;-75
2022/12/10 09:04:38;;;;;;;38.97;24.63;;;-0.60;99.90;;;;;;5073755;28;20208;-72
2022/12/10 09:07:05;;;;;;;39.00;26.17;;;-0.60;99.90;;;;;;5074064;28;20652;-74
2022/12/10 09:09:32;;;;;;;37.40;24.63;;;-0.60;99.90;;;;;;5073040;28;20695;-73
2022/12/10 09:12:00;;;;;;;38.07;26.00;;;-0.60;99.90;;;;;;5074094;28;20556;-74
2022/12/10 09:14:27;;;;;;;38.47;24.27;;;-0.70;99.90;;;;;;5074099;28;20246;-73
2022/12/10 09:16:53;;;;;;;43.83;24.43;;;-0.70;99.90;;;;;;5073749;28;20288;-74
2022/12/10 09:19:20;;;;;;;36.77;23.77;;;-0.70;99.90;;;;;;5074272;28;20223;-75
2022/12/10 09:21:47;;;;;;;65.37;35.00;;;-0.60;99.90;;;;;;5063142;28;20230;-74
2022/12/10 09:24:14;;;;;;;44.33;27.50;;;-0.60;99.90;;;;;;5053348;28;20198;-74
2022/12/10 09:26:40;;;;;;;52.27;30.27;;;-0.60;99.90;;;;;;5074777;28;20224;-74
2022/12/10 09:29:09;;;;;;;63.27;35.57;;;-0.60;99.90;;;;;;5077480;28;20197;-74
2022/12/10 09:31:35;;;;;;;34.30;24.53;;;-0.50;99.90;;;;;;5076956;28;20555;-74
2022/12/10 09:34:03;;;;;;;45.77;28.60;;;-0.70;99.90;;;;;;5076859;28;20640;-74
2022/12/10 09:36:29;;;;;;;48.93;30.50;;;-0.60;99.90;;;;;;5077194;28;20216;-74
2022/12/10 09:38:56;;;;;;;48.23;28.70;;;-0.60;99.90;;;;;;5079366;28;20904;-74
2022/12/10 09:41:43;;;;;;;54.03;33.60;;;-0.60;99.90;;;;;;5077683;28;20353;-74
2022/12/10 09:44:22;;;;;;;61.30;36.37;;;-0.60;99.90;;;;;;5077068;28;20733;-72
2022/12/10 09:46:52;;;;;;;51.63;30.87;;;-0.50;99.90;;;;;;5076886;28;20212;-73
2022/12/10 09:49:29;;;;;;;37.33;23.20;;;0.00;99.90;;;;;;5076559;28;20197;-72
2022/12/10 09:51:58;;;;;;;54.43;30.63;;;0.10;99.90;;;;;;5076513;28;20205;-74
2022/12/10 09:54:28;;;;;;;34.53;23.47;;;0.50;99.90;;;;;;5076877;28;20197;-75
2022/12/10 09:56:57;;;;;;;36.23;23.87;;;0.60;99.90;;;;;;5076610;28;20607;-76
2022/12/10 09:59:30;;;;;;;31.03;21.33;;;1.00;99.90;;;;;;5076824;28;20200;-75
2022/12/10 10:02:12;;;;;;;40.50;24.73;;;0.80;99.90;;;;;;5076916;28;20220;-74
2022/12/10 10:04:39;;;;;;;66.70;36.53;;;0.90;99.90;;;;;;5076450;28;20726;-73
2022/12/10 10:07:07;;;;;;;33.90;23.40;;;0.60;99.90;;;;;;5077399;28;20205;-79
2022/12/10 10:09:42;;;;;;;44.97;27.73;;;0.70;99.90;;;;;;5076503;28;20302;-74
2022/12/10 10:12:13;;;;;;;38.00;24.17;;;1.00;99.90;;;;;;5076099;28;20200;-75
2022/12/10 10:14:42;;;;;;;31.93;22.20;;;1.00;99.90;;;;;;5076990;28;20660;-74
2022/12/10 10:17:14;;;;;;;32.97;22.53;;;0.80;99.90;;;;;;5076300;28;20197;-73
2022/12/10 10:19:44;;;;;;;32.40;22.97;;;0.80;99.90;;;;;;5076234;28;20197;-73
2022/12/10 10:22:11;;;;;;;35.27;24.77;;;0.80;99.90;;;;;;5076205;28;20225;-72
2022/12/10 10:24:41;;;;;;;35.50;23.97;;;0.90;99.90;;;;;;5075805;28;20216;-73
2022/12/10 10:27:14;;;;;;;31.27;21.87;;;0.90;99.90;;;;;;5076080;28;20204;-73
2022/12/10 10:29:43;;;;;;;30.83;22.13;;;1.00;99.90;;;;;;5076199;28;20201;-74
2022/12/10 10:32:16;;;;;;;29.50;21.30;;;1.10;99.90;;;;;;5075647;28;20205;-73
2022/12/10 10:34:43;;;;;;;31.47;22.47;;;1.20;99.90;;;;;;5075354;28;20201;-74
2022/12/10 10:37:25;;;;;;;29.03;20.73;;;1.60;99.90;;;;;;5075428;28;20197;-74
2022/12/10 10:39:52;;;;;;;30.47;21.80;;;1.80;99.90;;;;;;5075615;28;20429;-74
2022/12/10 10:42:29;;;;;;;29.83;21.07;;;1.70;99.90;;;;;;5075262;28;20233;-74
2022/12/10 10:44:57;;;;;;;33.27;21.67;;;1.80;99.90;;;;;;5075358;28;20388;-74
2022/12/10 10:47:26;;;;;;;29.40;21.40;;;1.80;99.90;;;;;;5075201;28;20210;-74
2022/12/10 10:49:54;;;;;;;29.80;21.53;;;1.40;99.90;;;;;;5076119;28;20271;-74
2022/12/10 10:52:21;;;;;;;31.27;21.87;;;1.50;99.90;;;;;;5075250;28;20206;-74
2022/12/10 10:54:48;;;;;;;35.67;22.27;;;1.50;99.90;;;;;;5075601;28;20201;-74
2022/12/10 10:57:20;;;;;;;31.67;22.27;;;1.20;99.90;;;;;;5075407;28;20227;-74
2022/12/10 10:59:48;;;;;;;33.63;21.77;;;1.10;99.90;;;;;;5075304;28;20655;-74
2022/12/10 11:02:23;;;;;;;32.20;22.70;;;0.90;99.90;;;;;;5075813;28;20317;-73
2022/12/10 11:04:53;;;;;;;33.00;22.53;;;0.90;99.90;;;;;;5077782;28;20197;-73
2022/12/10 11:07:25;;;;;;;30.67;22.83;;;0.80;99.90;;;;;;5076857;28;20201;-74
2022/12/10 11:09:54;;;;;;;31.90;22.60;;;0.70;99.90;;;;;;5077243;28;20244;-73
2022/12/10 11:12:45;;;;;;;36.33;22.93;;;0.80;99.90;;;;;;5077906;28;20192;-74
2022/12/10 11:15:33;;;;;;;33.57;23.70;;;0.80;99.90;;;;;;5063231;28;20265;-74
2022/12/10 11:18:02;;;;;;;41.60;28.90;;;0.80;99.90;;;;;;5081116;28;20280;-74
2022/12/10 11:20:31;;;;;;;38.13;25.77;;;0.90;99.90;;;;;;5079548;28;20603;-75
2022/12/10 11:22:59;;;;;;;29.73;22.00;;;1.00;99.90;;;;;;5080621;28;20659;-74
2022/12/10 11:25:43;;;;;;;32.17;22.53;;;1.10;99.90;;;;;;5082539;28;20246;-74
2022/12/10 11:28:29;;;;;;;31.77;22.97;;;1.00;99.90;;;;;;5081289;28;20262;-74
2022/12/10 11:31:19;;;;;;;35.87;23.13;;;0.90;99.90;;;;;;5080568;28;20216;-74
2022/12/10 11:33:55;;;;;;;34.50;24.73;;;0.90;99.90;;;;;;5078708;28;20201;-74
2022/12/10 11:36:39;;;;;;;34.77;22.27;;;0.80;99.90;;;;;;5077793;28;20200;-74
2022/12/10 11:39:16;;;;;;;32.67;22.00;;;0.90;99.90;;;;;;5076614;28;20208;-74
2022/12/10 11:41:50;;;;;;;31.07;22.47;;;0.80;99.90;;;;;;5075750;28;20232;-74
2022/12/10 11:44:26;;;;;;;35.77;25.57;;;0.80;99.90;;;;;;5077583;28;20204;-73
2022/12/10 11:47:30;;;;;;;33.43;24.00;;;0.80;99.90;;;;;;5082757;28;20208;-73
2022/12/10 11:50:09;;;;;;;37.40;22.40;;;0.80;99.90;;;;;;5084247;28;20223;-74
2022/12/10 11:52:50;;;;;;;36.87;23.53;;;0.80;99.90;;;;;;5084043;28;20205;-73
2022/12/10 11:55:27;;;;;;;40.00;25.47;;;0.70;99.90;;;;;;5084430;28;20227;-77
2022/12/10 11:58:04;;;;;;;36.40;24.77;;;0.70;99.90;;;;;;5082740;28;20207;-73
2022/12/10 12:00:40;;;;;;;35.10;24.37;;;0.80;99.90;;;;;;5082597;28;20265;-73
2022/12/10 12:03:20;;;;;;;37.60;24.97;;;0.80;99.90;;;;;;5077180;28;20197;-74
2022/12/10 12:06:04;;;;;;;38.67;24.17;;;0.70;99.90;;;;;;5075684;28;20201;-73
2022/12/10 12:08:43;;;;;;;39.43;25.37;;;0.70;99.90;;;;;;5074215;28;20692;-74
2022/12/10 12:11:23;;;;;;;39.23;26.23;;;0.80;99.90;;;;;;5074163;28;20204;-75
2022/12/10 12:13:58;;;;;;;37.93;25.50;;;0.90;99.90;;;;;;5073760;28;20656;-74
2022/12/10 12:16:30;;;;;;;38.10;25.67;;;1.00;99.90;;;;;;5074024;28;20192;-74
2022/12/10 12:19:02;;;;;;;38.83;24.53;;;1.10;99.90;;;;;;5074001;28;20201;-75
2022/12/10 12:21:30;;;;;;;35.50;24.47;;;0.90;99.90;;;;;;5073556;28;20227;-74
2022/12/10 12:24:00;;;;;;;37.23;24.33;;;0.80;99.90;;;;;;5074003;28;20197;-73
2022/12/10 12:26:30;;;;;;;37.10;24.40;;;1.00;99.90;;;;;;5073434;28;20197;-73
2022/12/10 12:29:07;;;;;;;39.03;24.93;;;1.00;99.90;;;;;;5073663;28;20196;-73
2022/12/10 12:31:38;;;;;;;38.20;25.50;;;1.10;99.90;;;;;;5073889;28;20204;-71
2022/12/10 12:34:16;;;;;;;39.97;25.53;;;1.30;99.90;;;;;;5073748;28;20201;-72
2022/12/10 12:36:45;;;;;;;42.30;26.83;;;1.40;99.90;;;;;;5073525;28;20608;-74
2022/12/10 12:39:18;;;;;;;39.07;25.17;;;1.40;99.90;;;;;;5073198;28;20201;-74
2022/12/10 12:41:54;;;;;;;37.53;25.43;;;1.30;99.90;;;;;;5073966;28;20224;-74
2022/12/10 12:44:30;;;;;;;45.00;28.23;;;1.20;99.90;;;;;;5074518;28;20196;-74
2022/12/10 12:46:59;;;;;;;38.33;26.07;;;1.20;99.90;;;;;;5073433;28;20287;-74
2022/12/10 12:49:30;;;;;;;39.63;25.70;;;1.20;99.90;;;;;;5073422;28;20201;-73
2022/12/10 12:52:03;;;;;;;43.17;27.20;;;1.20;99.90;;;;;;5073972;28;20201;-73
2022/12/10 12:54:30;;;;;;;40.33;26.33;;;1.20;99.90;;;;;;5074002;28;20652;-72
2022/12/10 12:57:04;;;;;;;43.47;27.33;;;1.20;99.90;;;;;;5073920;28;20193;-73